createdAt,value
2018-07-11T00:00:17.218Z,21.00
2018-07-11T00:02:45.547Z,21.00
2018-07-11T00:05:13.841Z,21.00
2018-07-11T00:07:42.171Z,21.00
2018-07-11T00:10:10.531Z,21.00
2018-07-11T00:12:38.861Z,21.00
2018-07-11T00:15:07.287Z,21.00
2018-07-11T00:17:35.635Z,20.90
2018-07-11T00:20:04.014Z,21.00
2018-07-11T00:22:32.313Z,21.00
2018-07-11T00:25:00.631Z,21.00
2018-07-11T00:27:28.934Z,21.00
2018-07-11T00:29:57.235Z,20.90
2018-07-11T00:32:25.546Z,21.00
2018-07-11T00:34:53.883Z,20.90
2018-07-11T00:37:22.318Z,20.90
2018-07-11T00:39:50.495Z,20.90
2018-07-11T00:42:18.794Z,20.90
2018-07-11T00:44:47.169Z,20.90
2018-07-11T00:47:15.499Z,20.90
2018-07-11T00:49:43.827Z,20.90
2018-07-11T00:52:12.166Z,20.90
2018-07-11T00:54:41.119Z,20.80
2018-07-11T00:57:09.557Z,20.80
2018-07-11T00:59:39.342Z,20.80
2018-07-11T01:02:08.227Z,20.80
2018-07-11T01:04:36.559Z,20.90
2018-07-11T01:07:06.282Z,20.80
2018-07-11T01:09:42.034Z,20.80
2018-07-11T01:12:10.381Z,20.80
2018-07-11T01:14:38.746Z,20.80
2018-07-11T01:19:44.703Z,20.70
2018-07-11T01:22:13.033Z,20.70
2018-07-11T01:24:41.396Z,20.70
2018-07-11T01:27:09.687Z,20.70
2018-07-11T01:29:37.965Z,20.70
2018-07-11T01:32:06.298Z,20.70
2018-07-11T01:34:34.623Z,20.70
2018-07-11T01:37:02.920Z,20.70
2018-07-11T01:39:31.248Z,20.70
2018-07-11T01:41:59.606Z,20.70
2018-07-11T01:44:27.926Z,20.70
2018-07-11T01:46:56.212Z,20.70
2018-07-11T01:49:24.483Z,20.70
2018-07-11T01:52:04.236Z,20.70
2018-07-11T01:54:32.604Z,20.70
2018-07-11T01:57:00.913Z,20.70
2018-07-11T01:59:34.798Z,20.70
2018-07-11T02:02:03.714Z,20.70
2018-07-11T02:04:33.167Z,20.70
2018-07-11T02:07:02.381Z,20.70
2018-07-11T02:09:31.024Z,20.70
2018-07-11T02:11:59.419Z,20.70
2018-07-11T02:14:28.232Z,20.70
2018-07-11T02:16:56.638Z,20.70
2018-07-11T02:19:24.906Z,20.60
2018-07-11T02:21:53.503Z,20.60
2018-07-11T02:24:23.150Z,20.60
2018-07-11T02:29:20.059Z,20.60
2018-07-11T02:31:48.404Z,20.60
2018-07-11T02:34:17.890Z,20.60
2018-07-11T02:36:46.334Z,20.60
2018-07-11T02:39:14.676Z,20.60
2018-07-11T02:41:42.964Z,20.60
2018-07-11T02:44:11.291Z,20.60
2018-07-11T02:47:47.805Z,20.60
2018-07-11T02:50:16.145Z,20.60
2018-07-11T02:52:44.485Z,20.60
2018-07-11T02:55:12.810Z,20.50
2018-07-11T02:57:41.140Z,20.50
2018-07-11T03:00:09.460Z,20.50
2018-07-11T03:02:37.748Z,20.50
2018-07-11T03:05:06.072Z,20.50
2018-07-11T03:07:34.373Z,20.60
2018-07-11T03:10:02.698Z,20.50
2018-07-11T03:12:31.530Z,20.50
2018-07-11T03:14:59.843Z,20.50
2018-07-11T03:17:28.151Z,20.50
2018-07-11T03:19:56.566Z,20.50
2018-07-11T03:22:24.893Z,20.50
2018-07-11T03:24:53.171Z,20.50
2018-07-11T03:29:49.544Z,20.40
2018-07-11T03:32:17.840Z,20.50
2018-07-11T03:34:46.171Z,20.40
2018-07-11T03:37:14.542Z,20.40
2018-07-11T03:39:43.038Z,20.40
2018-07-11T03:42:11.356Z,20.40
2018-07-11T03:44:39.810Z,20.40
2018-07-11T03:47:08.188Z,20.40
2018-07-11T03:49:36.602Z,20.40
2018-07-11T03:52:05.222Z,20.40
2018-07-11T03:54:33.529Z,20.40
2018-07-11T03:57:01.843Z,20.40
2018-07-11T03:59:30.171Z,20.40
2018-07-11T04:01:58.518Z,20.40
2018-07-11T04:04:26.819Z,20.40
2018-07-11T04:06:55.225Z,20.40
2018-07-11T04:09:23.498Z,20.40
2018-07-11T04:11:51.801Z,20.40
2018-07-11T04:14:20.194Z,20.40
2018-07-11T04:16:48.520Z,20.40
2018-07-11T04:19:16.872Z,20.40
2018-07-11T04:21:45.183Z,20.40
2018-07-11T04:24:13.486Z,20.40
2018-07-11T04:26:41.874Z,20.50
2018-07-11T04:29:10.309Z,20.40
2018-07-11T04:31:38.891Z,20.40
2018-07-11T04:34:08.131Z,20.50
2018-07-11T04:36:36.428Z,20.50
2018-07-11T04:39:05.152Z,20.50
2018-07-11T04:41:33.572Z,20.50
2018-07-11T04:44:01.890Z,20.50
2018-07-11T04:46:30.279Z,20.50
2018-07-11T04:48:58.708Z,20.60
2018-07-11T04:51:27.051Z,20.60
2018-07-11T04:53:55.516Z,20.60
2018-07-11T04:56:24.083Z,20.60
2018-07-11T04:58:52.599Z,20.60
2018-07-11T05:01:20.977Z,20.70
2018-07-11T05:03:49.318Z,20.70
2018-07-11T05:06:17.768Z,20.70
2018-07-11T05:08:46.116Z,20.70
2018-07-11T05:11:14.453Z,20.80
2018-07-11T05:13:42.764Z,20.80
2018-07-11T05:16:11.133Z,20.80
2018-07-11T05:18:39.446Z,20.80
2018-07-11T05:21:07.778Z,20.80
2018-07-11T05:23:36.067Z,20.90
2018-07-11T05:26:04.377Z,20.90
2018-07-11T05:28:32.731Z,21.00
2018-07-11T05:31:01.067Z,21.00
2018-07-11T05:33:29.403Z,21.00
2018-07-11T05:35:57.718Z,21.00
2018-07-11T05:38:26.074Z,21.00
2018-07-11T05:40:54.450Z,21.10
2018-07-11T05:43:22.749Z,21.10
2018-07-11T05:45:51.078Z,21.10
2018-07-11T05:48:19.939Z,21.20
2018-07-11T05:50:48.310Z,21.30
2018-07-11T05:53:16.641Z,21.30
2018-07-11T05:55:45.045Z,21.30
2018-07-11T05:58:13.328Z,21.40
2018-07-11T06:00:41.689Z,21.40
2018-07-11T06:03:10.022Z,21.50
2018-07-11T06:05:38.400Z,21.50
2018-07-11T06:08:06.847Z,21.50
2018-07-11T06:10:35.177Z,21.60
2018-07-11T06:13:03.494Z,21.60
2018-07-11T06:15:31.861Z,21.60
2018-07-11T06:18:00.157Z,21.70
2018-07-11T06:20:28.486Z,21.70
2018-07-11T06:22:56.787Z,21.80
2018-07-11T06:25:25.099Z,21.80
2018-07-11T06:27:53.458Z,21.90
2018-07-11T06:32:49.894Z,21.90
2018-07-11T06:35:18.251Z,22.00
2018-07-11T06:40:14.704Z,22.10
2018-07-11T06:42:43.028Z,22.10
2018-07-11T06:45:11.395Z,22.20
2018-07-11T06:47:39.714Z,22.20
2018-07-11T06:50:08.104Z,22.20
2018-07-11T06:52:36.446Z,22.30
2018-07-11T06:55:04.849Z,22.30
2018-07-11T06:57:33.213Z,22.40
2018-07-11T07:00:01.521Z,22.40
2018-07-11T07:02:29.867Z,22.50
2018-07-11T07:04:58.553Z,22.50
2018-07-11T07:07:26.901Z,22.50
2018-07-11T07:09:55.251Z,22.60
2018-07-11T07:12:23.591Z,22.60
2018-07-11T07:14:52.046Z,22.60
2018-07-11T07:17:20.403Z,22.70
2018-07-11T07:19:48.763Z,22.70
2018-07-11T07:22:17.753Z,22.80
2018-07-11T07:24:46.142Z,22.80
2018-07-11T07:27:14.541Z,22.90
2018-07-11T07:29:42.906Z,22.90
2018-07-11T07:32:11.274Z,22.90
2018-07-11T07:37:07.692Z,23.00
2018-07-11T07:42:04.229Z,23.00
2018-07-11T07:44:32.543Z,23.10
2018-07-11T07:47:01.757Z,23.10
2018-07-11T07:49:31.461Z,23.10
2018-07-11T07:52:00.461Z,23.20
2018-07-11T07:54:29.644Z,23.20
2018-07-11T07:56:58.035Z,23.30
2018-07-11T07:59:26.819Z,23.40
2018-07-11T08:01:55.625Z,23.40
2018-07-11T08:04:24.263Z,23.40
2018-07-11T08:06:52.997Z,23.50
2018-07-11T08:09:21.375Z,23.50
2018-07-11T08:11:49.687Z,23.50
2018-07-11T08:14:18.005Z,23.60
2018-07-11T08:16:46.689Z,23.60
2018-07-11T08:19:15.017Z,23.70
2018-07-11T08:21:43.349Z,23.80
2018-07-11T08:24:23.155Z,23.90
2018-07-11T08:27:07.630Z,23.90
2018-07-11T08:29:59.313Z,23.90
2018-07-11T08:32:44.001Z,23.80
2018-07-11T08:35:28.533Z,23.70
2018-07-11T08:38:38.572Z,23.80
2018-07-11T08:43:24.854Z,23.90
2018-07-11T08:46:02.321Z,23.90
2018-07-11T08:48:42.114Z,24.10
2018-07-11T08:51:17.195Z,24.10
2018-07-11T08:53:57.239Z,24.10
2018-07-11T08:58:40.358Z,24.20
2018-07-11T09:02:23.566Z,24.20
2018-07-11T09:08:39.228Z,24.40
2018-07-11T09:13:23.408Z,24.50
2018-07-11T09:16:03.128Z,24.50
2018-07-11T09:18:43.247Z,24.60
2018-07-11T09:23:26.482Z,24.60
2018-07-11T09:25:54.812Z,24.70
2018-07-11T09:28:23.135Z,24.70
2018-07-11T09:30:51.505Z,24.80
2018-07-11T09:33:19.882Z,24.70
2018-07-11T09:35:48.247Z,24.80
2018-07-11T09:38:16.594Z,24.80
2018-07-11T09:40:44.875Z,24.80
2018-07-11T09:43:13.458Z,24.80
2018-07-11T09:45:41.780Z,24.80
2018-07-11T09:48:10.077Z,24.80
2018-07-11T09:50:38.365Z,24.70
2018-07-11T09:53:06.777Z,24.70
2018-07-11T09:55:36.389Z,24.70
2018-07-11T09:58:05.027Z,24.70
2018-07-11T10:00:38.643Z,24.70
2018-07-11T10:03:07.138Z,24.70
2018-07-11T10:05:35.488Z,24.80
2018-07-11T10:08:06.633Z,24.70
2018-07-11T10:10:34.965Z,24.80
2018-07-11T10:13:03.279Z,24.80
2018-07-11T10:15:31.643Z,24.90
2018-07-11T10:18:00.036Z,24.90
2018-07-11T10:20:28.388Z,25.10
2018-07-11T10:22:56.711Z,25.10
2018-07-11T10:25:25.104Z,25.20
2018-07-11T10:28:04.730Z,25.30
2018-07-11T10:30:33.118Z,25.40
2018-07-11T10:33:01.564Z,25.40
2018-07-11T10:35:29.958Z,25.40
2018-07-11T10:37:58.352Z,25.50
2018-07-11T10:40:26.901Z,25.50
2018-07-11T10:42:55.245Z,25.60
2018-07-11T10:45:23.535Z,25.50
2018-07-11T10:47:51.881Z,25.60
2018-07-11T10:50:20.198Z,25.60
2018-07-11T10:52:48.532Z,25.70
2018-07-11T10:55:16.865Z,25.60
2018-07-11T10:57:45.229Z,25.60
2018-07-11T11:00:35.964Z,25.60
2018-07-11T11:02:42.021Z,25.70
2018-07-11T11:05:10.406Z,25.70
2018-07-11T11:07:39.036Z,25.70
2018-07-11T11:10:07.339Z,25.70
2018-07-11T11:12:35.636Z,25.80
2018-07-11T11:15:03.973Z,25.80
2018-07-11T11:17:32.272Z,25.80
2018-07-11T11:20:00.618Z,25.90
2018-07-11T11:22:29.051Z,25.90
2018-07-11T11:24:57.430Z,25.90
2018-07-11T11:27:25.710Z,25.90
2018-07-11T11:29:54.234Z,25.90
2018-07-11T11:32:22.626Z,25.90
2018-07-11T11:34:50.944Z,25.80
2018-07-11T11:37:19.506Z,25.90
2018-07-11T11:39:47.869Z,25.90
2018-07-11T11:42:16.618Z,25.90
2018-07-11T11:44:44.906Z,25.90
2018-07-11T11:47:13.255Z,25.90
2018-07-11T11:49:41.695Z,25.90
2018-07-11T11:52:10.064Z,25.80
2018-07-11T11:54:38.385Z,25.80
2018-07-11T11:57:07.051Z,25.80
2018-07-11T11:59:35.406Z,25.90
2018-07-11T12:02:03.823Z,25.90
2018-07-11T12:04:32.169Z,25.90
2018-07-11T12:07:00.617Z,25.90
2018-07-11T12:09:28.938Z,26.00
2018-07-11T12:14:27.282Z,26.10
2018-07-11T12:16:55.582Z,26.10
2018-07-11T12:19:24.158Z,26.20
2018-07-11T12:21:53.066Z,26.30
2018-07-11T12:24:21.877Z,26.30
2018-07-11T12:26:50.199Z,26.30
2018-07-11T12:29:18.611Z,26.40
2018-07-11T12:31:46.905Z,26.40
2018-07-11T12:34:15.260Z,26.30
2018-07-11T12:36:43.575Z,26.30
2018-07-11T12:39:11.918Z,26.20
2018-07-11T12:41:40.325Z,26.20
2018-07-11T12:44:08.632Z,26.20
2018-07-11T12:46:37.017Z,26.30
2018-07-11T12:51:34.872Z,27.10
2018-07-11T12:54:03.820Z,26.70
2018-07-11T12:56:32.151Z,26.80
2018-07-11T12:59:00.495Z,26.80
2018-07-11T13:01:29.301Z,26.90
2018-07-11T13:03:58.598Z,27.00
2018-07-11T13:06:28.626Z,27.10
2018-07-11T13:08:57.015Z,27.20
2018-07-11T13:11:25.333Z,27.20
2018-07-11T13:13:53.724Z,27.10
2018-07-11T13:16:22.251Z,27.00
2018-07-11T13:18:50.496Z,27.00
2018-07-11T13:21:18.826Z,26.80
2018-07-11T13:23:47.179Z,26.80
2018-07-11T13:26:15.501Z,26.70
2018-07-11T13:28:43.835Z,26.70
2018-07-11T13:31:12.210Z,26.60
2018-07-11T13:33:41.061Z,26.60
2018-07-11T13:36:09.451Z,26.50
2018-07-11T13:38:37.835Z,26.30
2018-07-11T13:41:06.142Z,26.30
2018-07-11T13:43:34.483Z,26.30
2018-07-11T13:46:02.900Z,26.20
2018-07-11T13:48:31.243Z,26.20
2018-07-11T13:50:59.687Z,26.20
2018-07-11T13:53:28.035Z,26.20
2018-07-11T13:55:56.455Z,26.30
2018-07-11T13:58:24.743Z,26.20
2018-07-11T14:00:53.070Z,26.30
2018-07-11T14:03:21.535Z,26.30
2018-07-11T14:05:49.871Z,26.20
2018-07-11T14:08:18.306Z,26.20
2018-07-11T14:10:46.759Z,26.20
2018-07-11T14:13:15.126Z,26.30
2018-07-11T14:15:43.435Z,26.40
2018-07-11T14:18:11.784Z,26.40
2018-07-11T14:20:40.109Z,26.30
2018-07-11T14:23:09.122Z,26.30
2018-07-11T14:25:39.015Z,26.30
2018-07-11T14:28:07.440Z,26.30
2018-07-11T14:30:36.462Z,26.30
2018-07-11T14:33:06.911Z,26.30
2018-07-11T14:35:35.929Z,26.40
2018-07-11T14:38:04.262Z,26.60
2018-07-11T14:40:32.652Z,27.10
2018-07-11T14:43:01.069Z,27.30
2018-07-11T14:45:31.114Z,28.30
2018-07-11T14:48:04.794Z,28.70
2018-07-11T14:50:33.091Z,29.90
2018-07-11T14:53:01.962Z,31.00
2018-07-11T14:55:30.265Z,30.00
2018-07-11T14:57:58.691Z,28.40
2018-07-11T15:00:27.035Z,27.20
2018-07-11T15:02:55.348Z,27.40
2018-07-11T15:05:23.650Z,26.40
2018-07-11T15:07:52.076Z,26.40
2018-07-11T15:10:20.363Z,26.30
2018-07-11T15:12:49.422Z,26.30
2018-07-11T15:15:18.676Z,26.30
2018-07-11T15:17:47.001Z,26.30
2018-07-11T15:20:15.503Z,26.40
2018-07-11T15:22:43.806Z,26.40
2018-07-11T15:25:12.123Z,26.50
2018-07-11T15:27:40.599Z,26.50
2018-07-11T15:30:08.924Z,26.50
2018-07-11T15:32:37.282Z,26.60
2018-07-11T15:35:05.810Z,26.70
2018-07-11T15:37:34.186Z,26.70
2018-07-11T15:40:04.830Z,26.70
2018-07-11T15:42:33.263Z,26.80
2018-07-11T15:45:01.835Z,26.80
2018-07-11T15:47:31.230Z,26.80
2018-07-11T15:50:01.539Z,26.80
2018-07-11T15:52:31.951Z,26.90
2018-07-11T15:55:00.978Z,26.90
2018-07-11T15:57:39.325Z,27.00
2018-07-11T16:00:09.871Z,27.00
2018-07-11T16:02:44.652Z,27.00
2018-07-11T16:07:45.466Z,27.00
2018-07-11T16:10:14.680Z,27.00
2018-07-11T16:15:11.055Z,27.10
2018-07-11T16:17:39.376Z,27.10
2018-07-11T16:20:08.169Z,27.10
2018-07-11T16:22:36.755Z,27.20
2018-07-11T16:25:05.620Z,27.20
2018-07-11T16:27:34.024Z,27.30
2018-07-11T16:30:02.337Z,27.20
2018-07-11T16:32:31.573Z,27.30
2018-07-11T16:34:59.917Z,27.30
2018-07-11T16:37:28.804Z,27.30
2018-07-11T16:39:57.114Z,27.30
2018-07-11T16:42:25.411Z,27.40
2018-07-11T16:44:54.757Z,27.40
2018-07-11T16:47:23.096Z,27.40
2018-07-11T16:49:51.416Z,27.40
2018-07-11T16:52:19.769Z,27.40
2018-07-11T16:54:48.145Z,27.50
2018-07-11T16:57:22.649Z,27.40
2018-07-11T16:59:58.337Z,26.80
2018-07-11T17:02:27.148Z,27.50
2018-07-11T17:05:00.097Z,27.40
2018-07-11T17:07:28.448Z,27.50
2018-07-11T17:09:59.348Z,27.50
2018-07-11T17:12:27.708Z,27.50
2018-07-11T17:14:59.432Z,27.40
2018-07-11T17:17:32.804Z,27.50
2018-07-11T17:20:06.130Z,27.50
2018-07-11T17:22:43.682Z,27.40
2018-07-11T17:25:12.176Z,27.40
2018-07-11T17:27:40.507Z,27.50
2018-07-11T17:30:08.835Z,27.50
2018-07-11T17:32:37.801Z,27.40
2018-07-11T17:35:06.126Z,27.40
2018-07-11T17:37:35.841Z,27.40
2018-07-11T17:40:10.415Z,27.40
2018-07-11T17:42:42.264Z,27.50
2018-07-11T17:45:15.433Z,27.50
2018-07-11T17:49:22.819Z,27.50
2018-07-11T17:52:02.879Z,27.40
2018-07-11T17:55:14.954Z,27.40
2018-07-11T17:57:49.491Z,27.30
2018-07-11T18:00:33.161Z,27.30
2018-07-11T18:03:06.004Z,27.20
2018-07-11T18:05:41.786Z,27.20
2018-07-11T18:08:12.182Z,27.20
2018-07-11T18:10:51.887Z,27.20
2018-07-11T18:13:30.055Z,27.00
2018-07-11T18:16:16.962Z,27.00
2018-07-11T18:18:54.679Z,27.00
2018-07-11T18:21:45.384Z,27.00
2018-07-11T18:25:44.869Z,27.00
2018-07-11T18:28:27.230Z,27.00
2018-07-11T18:31:04.636Z,27.00
2018-07-11T18:34:44.619Z,26.70
2018-07-11T18:37:59.188Z,26.50
2018-07-11T18:40:31.047Z,26.40
2018-07-11T18:43:10.467Z,26.40
2018-07-11T18:45:57.791Z,26.40
2018-07-11T18:49:37.615Z,26.30
2018-07-11T18:52:17.103Z,26.40
2018-07-11T18:54:59.429Z,26.30
2018-07-11T18:59:43.498Z,26.30
2018-07-11T19:03:23.803Z,26.20
2018-07-11T19:06:06.947Z,26.20
2018-07-11T19:08:48.332Z,26.10
2018-07-11T19:11:22.239Z,26.10
2018-07-11T19:13:53.593Z,26.10
2018-07-11T19:16:29.054Z,26.10
2018-07-11T19:19:11.310Z,26.00
2018-07-11T19:26:36.439Z,26.00
2018-07-11T19:29:10.813Z,26.00
2018-07-11T19:31:49.218Z,25.90
2018-07-11T19:34:33.509Z,25.90
2018-07-11T19:37:07.231Z,25.90
2018-07-11T19:41:51.372Z,25.90
2018-07-11T19:44:31.928Z,25.80
2018-07-11T19:47:07.479Z,25.90
2018-07-11T19:49:46.831Z,25.80
2018-07-11T19:54:31.559Z,25.70
2018-07-11T19:57:01.543Z,26.30
2018-07-11T19:59:30.836Z,25.90
2018-07-11T20:01:59.847Z,25.80
2018-07-11T20:04:29.060Z,25.80
2018-07-11T20:06:57.394Z,25.70
2018-07-11T20:09:26.491Z,25.70
2018-07-11T20:11:54.812Z,25.70
2018-07-11T20:14:23.393Z,25.70
2018-07-11T20:16:51.905Z,25.60
2018-07-11T20:19:20.622Z,25.60
2018-07-11T20:21:49.144Z,25.60
2018-07-11T20:24:17.519Z,25.60
2018-07-11T20:26:45.903Z,25.50
2018-07-11T20:29:14.192Z,25.50
2018-07-11T20:31:42.466Z,25.50
2018-07-11T20:34:10.824Z,25.50
2018-07-11T20:36:39.171Z,25.50
2018-07-11T20:41:35.651Z,25.50
2018-07-11T20:44:04.137Z,25.40
2018-07-11T20:46:33.445Z,25.40
2018-07-11T20:49:06.807Z,25.40
2018-07-11T20:51:35.224Z,25.40
2018-07-11T20:54:03.502Z,25.40
2018-07-11T20:56:32.278Z,25.40
2018-07-11T20:59:12.079Z,25.40
2018-07-11T21:02:55.485Z,25.40
2018-07-11T21:06:47.358Z,25.30
2018-07-11T21:10:01.564Z,25.30
2018-07-11T21:15:50.614Z,25.20
2018-07-11T21:18:37.196Z,25.10
2018-07-11T21:21:05.523Z,25.10
2018-07-11T21:23:34.358Z,25.10
2018-07-11T21:26:02.672Z,25.10
2018-07-11T21:28:30.994Z,25.10
2018-07-11T21:30:59.326Z,25.10
2018-07-11T21:33:27.631Z,25.10
2018-07-11T21:35:56.011Z,25.10
2018-07-11T21:38:24.331Z,25.00
2018-07-11T21:40:52.828Z,25.00
2018-07-11T21:43:21.172Z,25.00
2018-07-11T21:45:49.563Z,25.00
2018-07-11T21:48:17.860Z,25.00
2018-07-11T21:50:46.177Z,25.00
2018-07-11T21:53:14.511Z,25.00
2018-07-11T21:55:42.845Z,24.90
2018-07-11T21:58:11.147Z,24.90
2018-07-11T22:00:40.556Z,24.90
2018-07-11T22:03:09.850Z,24.90
2018-07-11T22:05:38.426Z,24.80
2018-07-11T22:08:07.812Z,24.80
2018-07-11T22:10:37.429Z,24.80
2018-07-11T22:13:06.040Z,24.80
2018-07-11T22:15:34.732Z,24.80
2018-07-11T22:18:14.856Z,24.80
2018-07-11T22:20:42.106Z,24.70
2018-07-11T22:23:09.348Z,24.80
2018-07-11T22:25:36.609Z,24.70
2018-07-11T22:28:03.860Z,24.70
2018-07-11T22:30:31.137Z,24.70
2018-07-11T22:32:58.395Z,24.70
2018-07-11T22:35:25.655Z,24.70
2018-07-11T22:37:52.919Z,24.70
2018-07-11T22:40:20.177Z,24.70
2018-07-11T22:42:47.637Z,24.60
2018-07-11T22:45:14.853Z,24.60
2018-07-11T22:47:42.091Z,24.60
2018-07-11T22:50:09.386Z,24.60
2018-07-11T22:52:36.655Z,24.60
2018-07-11T22:55:04.816Z,24.60
2018-07-11T22:57:32.081Z,24.60
2018-07-11T22:59:59.398Z,24.50
2018-07-11T23:02:26.660Z,24.50
2018-07-11T23:04:53.926Z,24.50
2018-07-11T23:09:48.731Z,24.50
2018-07-11T23:12:16.003Z,24.50
2018-07-11T23:14:43.261Z,24.50
2018-07-11T23:17:10.521Z,24.50
2018-07-11T23:19:37.767Z,24.40
2018-07-11T23:22:05.000Z,24.40
2018-07-11T23:24:32.375Z,24.40
2018-07-11T23:26:59.638Z,24.40
2018-07-11T23:29:26.942Z,24.40
2018-07-11T23:31:54.179Z,24.40
2018-07-11T23:34:21.468Z,24.40
2018-07-11T23:36:48.734Z,24.40
2018-07-11T23:39:16.042Z,24.40
2018-07-11T23:41:43.343Z,24.30
2018-07-11T23:44:10.683Z,24.30
2018-07-11T23:46:37.944Z,24.30
2018-07-11T23:49:05.199Z,24.30
2018-07-11T23:51:32.543Z,24.30
2018-07-11T23:53:59.844Z,24.30
2018-07-11T23:56:27.111Z,24.30
2018-07-11T23:58:54.406Z,24.30
